Time;durP1;ratioP1;P1;durP2;ratioP2;P2;SDS_P1;SDS_P2;PMS_P1;PMS_P2;Temp;Humidity;BMP_temperature;BMP_pressure;BME280_temperature;BME280_humidity;BME280_pressure;Samples;Min_cycle;Max_cycle;Signal;HPM_P1;HPM_P2
2021/11/13 00:00:23;;;;;;;21.23;14.07;;;8.10;73.50;;;;;;5034307;28;20480;-76
2021/11/13 00:02:50;;;;;;;20.98;14.07;;;8.10;73.50;;;;;;5034448;28;20108;-74
2021/11/13 00:05:16;;;;;;;21.10;13.23;;;8.00;73.60;;;;;;5038132;28;20029;-75
2021/11/13 00:07:42;;;;;;;22.45;14.35;;;8.00;73.70;;;;;;5041884;28;20021;-75
2021/11/13 00:10:10;;;;;;;21.92;14.10;;;8.10;73.80;;;;;;5037185;28;20063;-75
2021/11/13 00:12:35;;;;;;;21.63;14.57;;;8.10;73.80;;;;;;5035917;28;20031;-75
2021/11/13 00:15:03;;;;;;;21.80;14.23;;;8.10;73.90;;;;;;5035090;28;20370;-76
2021/11/13 00:17:29;;;;;;;19.40;13.43;;;8.10;73.90;;;;;;5033161;28;20029;-76
2021/11/13 00:19:54;;;;;;;21.85;14.15;;;8.10;73.80;;;;;;5035280;28;20017;-77
2021/11/13 00:22:20;;;;;;;22.08;14.80;;;8.20;73.70;;;;;;5029633;28;20083;-77
2021/11/13 00:24:45;;;;;;;21.63;14.88;;;8.20;73.60;;;;;;5030329;28;20032;-76
2021/11/13 00:27:11;;;;;;;22.20;14.25;;;8.20;73.40;;;;;;5032297;28;20021;-76
2021/11/13 00:29:37;;;;;;;20.85;14.02;;;8.10;73.40;;;;;;5029433;28;20396;-77
2021/11/13 00:32:03;;;;;;;20.73;13.93;;;8.10;73.40;;;;;;5032105;28;20021;-75
2021/11/13 00:34:30;;;;;;;21.40;14.38;;;8.10;73.20;;;;;;5033318;28;20021;-75
2021/11/13 00:36:55;;;;;;;20.70;14.95;;;8.10;73.20;;;;;;5032325;28;20477;-76
2021/11/13 00:39:22;;;;;;;22.15;15.40;;;8.10;73.40;;;;;;5035267;28;20022;-75
2021/11/13 00:41:48;;;;;;;21.27;14.48;;;8.00;73.30;;;;;;5034010;28;20120;-76
2021/11/13 00:44:14;;;;;;;20.95;14.10;;;8.00;73.40;;;;;;5033511;28;20471;-75
2021/11/13 00:46:40;;;;;;;21.65;14.30;;;8.00;73.40;;;;;;5035151;28;20024;-75
2021/11/13 00:49:06;;;;;;;22.38;14.60;;;8.10;73.50;;;;;;5033761;28;20128;-75
2021/11/13 00:51:33;;;;;;;21.52;14.60;;;8.10;73.50;;;;;;5035001;28;20033;-75
2021/11/13 00:53:59;;;;;;;22.65;15.13;;;8.10;73.50;;;;;;5034419;28;20025;-75
2021/11/13 00:56:25;;;;;;;23.50;15.23;;;8.10;73.50;;;;;;5035293;28;20040;-75
2021/11/13 00:58:50;;;;;;;26.52;17.10;;;8.10;73.50;;;;;;5033814;28;20057;-75
2021/11/13 01:01:16;;;;;;;25.42;16.73;;;8.10;73.50;;;;;;5037611;28;20025;-75
2021/11/13 01:03:43;;;;;;;22.70;15.75;;;8.10;73.50;;;;;;5042389;28;20025;-75
2021/11/13 01:06:09;;;;;;;21.35;15.02;;;8.20;73.40;;;;;;5039611;28;20487;-75
2021/11/13 01:08:34;;;;;;;25.83;16.20;;;8.30;73.30;;;;;;5037170;28;20402;-75
2021/11/13 01:11:00;;;;;;;24.15;15.55;;;8.30;73.10;;;;;;5034973;28;20026;-75
2021/11/13 01:13:26;;;;;;;25.52;15.88;;;8.30;73.00;;;;;;5033646;28;20028;-75
2021/11/13 01:15:53;;;;;;;25.65;16.52;;;8.30;72.90;;;;;;5033131;28;20025;-75
2021/11/13 01:18:18;;;;;;;27.13;17.15;;;8.30;73.00;;;;;;5033558;28;20375;-76
2021/11/13 01:20:44;;;;;;;26.23;16.17;;;8.30;73.00;;;;;;5034903;28;20022;-76
2021/11/13 01:23:10;;;;;;;24.80;15.95;;;8.30;73.00;;;;;;5033293;28;20025;-75
2021/11/13 01:25:36;;;;;;;25.48;16.17;;;8.30;73.00;;;;;;5034320;28;20048;-75
2021/11/13 01:28:02;;;;;;;25.08;16.33;;;8.30;73.10;;;;;;5032938;28;20022;-76
2021/11/13 01:30:27;;;;;;;22.95;15.65;;;8.30;73.20;;;;;;5032986;28;20475;-77
2021/11/13 01:32:53;;;;;;;25.83;16.27;;;8.20;73.30;;;;;;5034316;28;20049;-77
2021/11/13 01:35:22;;;;;;;26.75;18.38;;;8.30;73.30;;;;;;5032626;28;20403;-76
2021/11/13 01:37:48;;;;;;;27.10;17.70;;;8.20;73.40;;;;;;5034500;28;20426;-75
2021/11/13 01:40:16;;;;;;;25.27;16.83;;;8.30;73.40;;;;;;5032962;28;20060;-75
2021/11/13 01:42:43;;;;;;;32.08;17.90;;;8.30;73.30;;;;;;5033157;28;20028;-75
2021/11/13 01:45:10;;;;;;;28.75;19.27;;;8.30;73.20;;;;;;5033431;28;20164;-76
2021/11/13 01:47:38;;;;;;;34.00;22.50;;;8.30;73.10;;;;;;5033055;28;20041;-76
2021/11/13 01:50:14;;;;;;;36.70;23.88;;;8.30;73.10;;;;;;5033909;28;20042;-76
2021/11/13 01:52:40;;;;;;;35.55;24.52;;;8.30;73.20;;;;;;5032591;28;20115;-76
2021/11/13 01:55:06;;;;;;;41.75;29.50;;;8.20;73.40;;;;;;5033274;28;20032;-75
2021/11/13 01:57:34;;;;;;;40.78;28.90;;;8.20;73.70;;;;;;5041716;28;20028;-76
2021/11/13 01:59:59;;;;;;;41.15;28.92;;;8.20;73.80;;;;;;5038131;28;20084;-76
2021/11/13 02:02:25;;;;;;;39.92;27.27;;;8.20;73.70;;;;;;5032688;28;20462;-76
2021/11/13 02:04:51;;;;;;;38.97;28.55;;;8.10;74.00;;;;;;5034936;28;20017;-76
2021/11/13 02:07:17;;;;;;;39.55;29.05;;;8.00;74.30;;;;;;5032764;28;20467;-76
2021/11/13 02:09:42;;;;;;;36.67;27.88;;;8.00;74.40;;;;;;5027700;28;20145;-76
2021/11/13 02:12:08;;;;;;;31.42;21.77;;;8.10;74.40;;;;;;5032423;28;20080;-75
2021/11/13 02:14:35;;;;;;;36.85;26.42;;;8.10;74.20;;;;;;5031216;28;20033;-76
2021/11/13 02:17:01;;;;;;;31.42;22.20;;;8.10;74.00;;;;;;5032544;28;20029;-76
2021/11/13 02:19:26;;;;;;;31.33;20.65;;;8.00;74.20;;;;;;5033359;28;20025;-76
2021/11/13 02:21:52;;;;;;;31.23;20.85;;;8.00;74.30;;;;;;5032472;28;20483;-76
2021/11/13 02:24:18;;;;;;;27.35;18.88;;;8.00;74.30;;;;;;5033379;28;20025;-75
2021/11/13 02:26:43;;;;;;;28.00;17.67;;;8.00;74.50;;;;;;5033446;28;20101;-76
2021/11/13 02:29:09;;;;;;;27.45;17.85;;;8.00;74.50;;;;;;5033396;28;20037;-76
2021/11/13 02:31:36;;;;;;;27.23;18.40;;;8.00;74.40;;;;;;5031982;28;20113;-76
2021/11/13 02:34:04;;;;;;;30.40;19.65;;;8.00;74.20;;;;;;5032292;28;20399;-76
2021/11/13 02:36:30;;;;;;;28.20;19.30;;;7.90;74.30;;;;;;5031848;28;20029;-76
2021/11/13 02:38:58;;;;;;;33.92;19.10;;;7.90;74.30;;;;;;5033249;28;20033;-76
2021/11/13 02:41:26;;;;;;;30.20;19.83;;;7.90;74.80;;;;;;5032869;28;20025;-75
2021/11/13 02:43:53;;;;;;;33.72;21.77;;;7.90;74.60;;;;;;5032081;28;20037;-77
2021/11/13 02:46:19;;;;;;;36.20;22.73;;;7.80;74.60;;;;;;5033160;28;20107;-76
2021/11/13 02:48:47;;;;;;;37.58;24.55;;;7.90;74.80;;;;;;5036896;28;20037;-75
2021/11/13 02:51:13;;;;;;;41.65;25.13;;;7.90;74.80;;;;;;5040334;28;20052;-75
2021/11/13 02:53:42;;;;;;;41.55;25.02;;;7.70;74.70;;;;;;5041570;28;20414;-76
2021/11/13 02:56:08;;;;;;;40.33;23.73;;;7.70;75.00;;;;;;5033476;28;20113;-75
2021/11/13 02:58:36;;;;;;;38.97;24.00;;;7.60;75.20;;;;;;5033304;28;20056;-75
2021/11/13 03:01:22;;;;;;;43.20;24.77;;;7.60;75.50;;;;;;5031775;28;20021;-75
2021/11/13 03:03:49;;;;;;;;;;;7.60;75.50;;;;;;5047063;28;20468;-75
2021/11/13 03:06:15;;;;;;;39.45;24.42;;;7.60;75.10;;;;;;5032320;28;20347;-74
2021/11/13 03:08:43;;;;;;;40.95;25.38;;;7.50;75.40;;;;;;5032850;28;20063;-80
2021/11/13 03:11:13;;;;;;;39.20;24.00;;;7.40;75.80;;;;;;5028408;28;20071;-75
2021/11/13 03:13:42;;;;;;;38.60;23.83;;;7.40;76.20;;;;;;5031687;28;20017;-75
2021/11/13 03:16:08;;;;;;;38.42;23.13;;;7.40;76.40;;;;;;5031312;28;20422;-75
2021/11/13 03:18:35;;;;;;;39.15;23.70;;;7.50;76.30;;;;;;5031769;28;20418;-76
2021/11/13 03:21:07;;;;;;;35.97;22.80;;;7.50;76.30;;;;;;5031121;28;20029;-76
2021/11/13 03:23:34;;;;;;;37.33;22.42;;;7.50;76.20;;;;;;5031680;28;20021;-75
2021/11/13 03:26:06;;;;;;;37.80;23.13;;;7.60;76.30;;;;;;5031621;28;20052;-75
2021/11/13 03:28:37;;;;;;;42.38;24.58;;;7.60;76.10;;;;;;5033164;28;20116;-75
2021/11/13 03:31:04;;;;;;;42.70;25.48;;;7.60;76.00;;;;;;5028099;28;20033;-75
2021/11/13 03:33:32;;;;;;;44.08;26.50;;;7.60;76.00;;;;;;5025603;28;20037;-75
2021/11/13 03:35:59;;;;;;;46.30;28.02;;;7.60;76.00;;;;;;5031887;28;20021;-75
2021/11/13 03:38:25;;;;;;;46.33;26.77;;;7.60;76.10;;;;;;5032718;28;20352;-75
2021/11/13 03:40:51;;;;;;;43.13;25.88;;;7.60;76.00;;;;;;5032610;28;20025;-75
2021/11/13 03:43:17;;;;;;;41.08;25.05;;;7.50;75.90;;;;;;5031177;28;20045;-74
2021/11/13 03:45:45;;;;;;;45.97;26.13;;;7.50;76.10;;;;;;5034699;28;20033;-74
2021/11/13 03:48:11;;;;;;;41.88;26.17;;;7.50;76.20;;;;;;5033199;28;20025;-74
2021/11/13 03:50:37;;;;;;;45.15;27.88;;;7.50;76.20;;;;;;5031112;28;20308;-75
2021/11/13 03:53:05;;;;;;;46.92;27.40;;;7.40;76.50;;;;;;5031279;28;20035;-76
2021/11/13 03:55:32;;;;;;;42.90;25.90;;;7.40;76.60;;;;;;5031483;28;20045;-75
2021/11/13 03:57:59;;;;;;;40.47;25.77;;;7.40;76.70;;;;;;5030295;28;20375;-75
2021/11/13 04:00:26;;;;;;;37.50;24.52;;;7.50;76.50;;;;;;5034920;28;20021;-75
2021/11/13 04:02:52;;;;;;;41.90;25.15;;;7.60;77.00;;;;;;5034659;28;20025;-75
2021/11/13 04:05:19;;;;;;;35.92;23.63;;;7.50;76.30;;;;;;5035104;28;20036;-75
2021/11/13 04:07:46;;;;;;;38.42;23.27;;;7.40;76.50;;;;;;5034801;28;20060;-76
2021/11/13 04:10:14;;;;;;;37.20;22.83;;;7.50;76.50;;;;;;5035020;28;20116;-76
2021/11/13 04:12:40;;;;;;;33.67;21.42;;;7.50;76.50;;;;;;5035205;28;20010;-76
2021/11/13 04:15:07;;;;;;;34.75;22.42;;;7.50;76.40;;;;;;5034944;28;20022;-77
2021/11/13 04:17:33;;;;;;;36.25;24.48;;;7.50;76.30;;;;;;5035102;28;20022;-76
2021/11/13 04:19:59;;;;;;;32.88;21.55;;;7.40;76.20;;;;;;5036200;28;20028;-76
2021/11/13 04:22:25;;;;;;;36.22;22.95;;;7.40;76.40;;;;;;5035814;28;20025;-76
2021/11/13 04:24:51;;;;;;;33.63;22.67;;;7.30;76.60;;;;;;5034385;28;20037;-76
2021/11/13 04:27:17;;;;;;;33.13;21.60;;;7.30;76.90;;;;;;5035730;28;20383;-76
2021/11/13 04:29:44;;;;;;;40.22;24.20;;;7.40;76.90;;;;;;5033956;28;20029;-76
2021/11/13 04:32:10;;;;;;;39.28;24.90;;;7.30;76.70;;;;;;5035477;28;20370;-76
2021/11/13 04:37:31;;;;;;;38.95;26.23;;;7.20;76.90;;;;;;5031251;28;20059;-75
2021/11/13 04:39:57;;;;;;;37.45;24.52;;;7.00;77.00;;;;;;5036471;28;20409;-75
2021/11/13 04:42:23;;;;;;;40.95;25.17;;;6.90;77.40;;;;;;5044707;28;20028;-76
2021/11/13 04:44:49;;;;;;;40.67;25.95;;;6.80;77.70;;;;;;5044332;28;20050;-76
2021/11/13 04:47:17;;;;;;;46.10;26.27;;;6.70;78.20;;;;;;5035646;28;20033;-76
2021/11/13 04:49:43;;;;;;;42.97;26.55;;;6.60;78.70;;;;;;5033847;28;20048;-76
2021/11/13 04:52:10;;;;;;;43.65;26.85;;;6.50;79.10;;;;;;5034252;28;20021;-76
2021/11/13 04:54:36;;;;;;;41.35;26.80;;;6.40;79.50;;;;;;5033589;28;20108;-76
2021/11/13 04:57:03;;;;;;;45.58;28.02;;;6.30;79.80;;;;;;5034115;28;20079;-76
2021/11/13 04:59:29;;;;;;;43.78;27.15;;;6.30;80.10;;;;;;5033753;28;20064;-74
2021/11/13 05:01:55;;;;;;;47.63;27.52;;;6.30;80.40;;;;;;5034114;28;20049;-75
2021/11/13 05:04:20;;;;;;;43.35;27.60;;;6.30;80.60;;;;;;5055349;28;20029;-78
2021/11/13 05:06:46;;;;;;;50.97;28.92;;;6.30;80.80;;;;;;5033696;28;20030;-75
2021/11/13 05:09:12;;;;;;;51.00;29.02;;;6.30;80.90;;;;;;5033760;28;20392;-75
2021/11/13 05:11:37;;;;;;;50.70;28.58;;;6.30;80.80;;;;;;5034545;28;20053;-77
2021/11/13 05:14:04;;;;;;;45.67;28.23;;;6.30;81.60;;;;;;5032581;28;20079;-76
2021/11/13 05:16:30;;;;;;;54.70;29.52;;;6.30;81.30;;;;;;5028415;28;20039;-76
2021/11/13 05:18:55;;;;;;;61.28;29.45;;;6.30;81.40;;;;;;5031641;28;20109;-77
2021/11/13 05:21:21;;;;;;;50.33;29.15;;;6.40;81.50;;;;;;5040722;28;20418;-76
2021/11/13 05:23:47;;;;;;;50.83;28.02;;;6.40;81.50;;;;;;5033445;28;20028;-76
2021/11/13 05:26:12;;;;;;;54.08;32.22;;;6.40;81.50;;;;;;5033195;28;20030;-76
2021/11/13 05:28:43;;;;;;;56.80;33.40;;;6.60;81.60;;;;;;5033849;28;20033;-77
2021/11/13 05:31:10;;;;;;;58.13;33.35;;;6.70;81.30;;;;;;5035701;28;20116;-76
2021/11/13 05:33:36;;;;;;;50.53;30.17;;;6.70;80.90;;;;;;5029530;28;20108;-77
2021/11/13 05:36:02;;;;;;;48.33;30.40;;;6.80;80.70;;;;;;5037861;28;20032;-76
2021/11/13 05:38:28;;;;;;;47.90;31.00;;;6.90;80.60;;;;;;5043654;28;20037;-75
2021/11/13 05:40:54;;;;;;;46.65;28.90;;;7.00;80.20;;;;;;5038698;28;20031;-75
2021/11/13 05:43:20;;;;;;;45.67;30.48;;;7.00;80.00;;;;;;5033602;28;20038;-77
2021/11/13 05:45:48;;;;;;;46.42;29.65;;;7.10;79.80;;;;;;5029047;28;20018;-80
2021/11/13 05:48:20;;;;;;;40.30;27.30;;;7.10;79.60;;;;;;5028236;28;20100;-76
2021/11/13 05:50:46;;;;;;;37.58;25.45;;;7.20;79.30;;;;;;5035464;28;20037;-77
2021/11/13 05:53:12;;;;;;;35.60;23.35;;;7.30;79.00;;;;;;5029533;28;20022;-77
2021/11/13 05:55:38;;;;;;;35.45;22.10;;;7.30;78.50;;;;;;5020010;28;20036;-76
2021/11/13 05:58:04;;;;;;;35.13;22.75;;;7.40;78.30;;;;;;5035625;28;20045;-76
2021/11/13 06:00:31;;;;;;;42.97;26.65;;;7.60;78.00;;;;;;5034376;28;20021;-78
2021/11/13 06:02:57;;;;;;;41.58;26.98;;;7.70;77.60;;;;;;5037677;28;20052;-74
2021/11/13 06:05:23;;;;;;;37.92;25.02;;;7.70;77.10;;;;;;5044528;28;20048;-76
2021/11/13 06:07:49;;;;;;;47.72;27.33;;;7.70;76.70;;;;;;5033954;28;20076;-76
2021/11/13 06:10:16;;;;;;;49.45;29.60;;;7.80;77.00;;;;;;5032960;28;20041;-77
2021/11/13 06:12:42;;;;;;;52.30;30.73;;;7.90;77.30;;;;;;5031793;28;20086;-76
2021/11/13 06:15:11;;;;;;;45.67;30.00;;;8.00;76.90;;;;;;5036092;28;20136;-75
2021/11/13 06:17:38;;;;;;;47.47;28.42;;;8.20;76.30;;;;;;5030430;28;20375;-81
2021/11/13 06:20:05;;;;;;;46.13;28.92;;;8.40;76.40;;;;;;5030502;28;20152;-79
2021/11/13 06:22:31;;;;;;;50.70;31.15;;;8.80;75.70;;;;;;5027994;28;20415;-81
2021/11/13 06:24:57;;;;;;;55.90;32.42;;;9.10;74.20;;;;;;5029612;28;20036;-75
2021/11/13 06:27:23;;;;;;;47.60;29.42;;;9.40;73.20;;;;;;5032675;28;20115;-75
2021/11/13 06:29:49;;;;;;;50.92;30.33;;;9.50;72.30;;;;;;5032862;28;20034;-75
2021/11/13 06:32:15;;;;;;;56.17;30.17;;;9.60;71.60;;;;;;5034554;28;20040;-74
2021/11/13 06:34:40;;;;;;;50.13;29.98;;;9.70;71.10;;;;;;5032435;28;20025;-75
2021/11/13 06:37:08;;;;;;;48.28;29.20;;;9.70;70.90;;;;;;5037598;28;20030;-74
2021/11/13 06:39:34;;;;;;;43.92;26.13;;;9.80;70.60;;;;;;5034737;28;20017;-74
2021/11/13 06:42:01;;;;;;;46.60;30.30;;;9.90;70.30;;;;;;5032591;28;20022;-74
2021/11/13 06:44:27;;;;;;;53.20;32.10;;;10.00;70.00;;;;;;5032646;28;20136;-74
2021/11/13 06:46:53;;;;;;;52.78;31.30;;;10.20;69.60;;;;;;5034295;28;20018;-74
2021/11/13 06:49:18;;;;;;;46.35;29.77;;;10.30;69.40;;;;;;5032452;28;20353;-75
2021/11/13 06:51:45;;;;;;;44.20;27.17;;;10.40;69.30;;;;;;5032403;28;20028;-74
2021/11/13 06:54:12;;;;;;;42.33;26.58;;;11.00;70.10;;;;;;5033843;28;20014;-76
2021/11/13 06:56:39;;;;;;;40.08;25.45;;;11.90;68.90;;;;;;5032696;28;20459;-76
2021/11/13 06:59:04;;;;;;;40.13;25.05;;;12.60;66.20;;;;;;5032161;28;20032;-75
2021/11/13 07:01:30;;;;;;;41.55;24.88;;;12.90;64.70;;;;;;5033496;28;20022;-74
2021/11/13 07:03:56;;;;;;;44.72;24.45;;;13.60;64.00;;;;;;5032342;28;21189;-75
2021/11/13 07:06:22;;;;;;;36.90;23.10;;;14.20;61.90;;;;;;5033058;28;20041;-75
2021/11/13 07:08:47;;;;;;;43.53;24.30;;;14.80;61.00;;;;;;5033559;28;20044;-75
2021/11/13 07:11:13;;;;;;;41.42;25.02;;;15.50;59.90;;;;;;5032259;28;20510;-75
2021/11/13 07:13:39;;;;;;;39.10;23.20;;;16.30;58.10;;;;;;5032261;28;20112;-75
2021/11/13 07:16:04;;;;;;;35.33;21.05;;;16.90;56.30;;;;;;5033577;28;20022;-75
2021/11/13 07:18:30;;;;;;;36.78;21.55;;;17.60;55.60;;;;;;5033261;28;20448;-75
2021/11/13 07:20:59;;;;;;;38.53;22.30;;;18.20;53.30;;;;;;5033297;28;20096;-75
2021/11/13 07:23:25;;;;;;;39.13;24.10;;;18.70;51.60;;;;;;5035408;28;20026;-75
2021/11/13 07:25:51;;;;;;;40.20;23.90;;;19.20;50.50;;;;;;5036356;28;20025;-74
2021/11/13 07:28:18;;;;;;;42.65;22.98;;;19.40;49.40;;;;;;5040560;28;20028;-76
2021/11/13 07:30:46;;;;;;;36.97;22.77;;;19.80;48.70;;;;;;5038035;28;20036;-75
2021/11/13 07:33:12;;;;;;;30.27;21.02;;;20.00;48.10;;;;;;5034631;28;20053;-74
2021/11/13 07:35:41;;;;;;;38.78;22.00;;;20.20;47.20;;;;;;5038260;28;20029;-75
2021/11/13 07:38:07;;;;;;;40.13;22.50;;;20.20;46.70;;;;;;5036573;28;20025;-76
2021/11/13 07:40:34;;;;;;;32.75;20.50;;;20.20;46.40;;;;;;5038032;28;20033;-75
2021/11/13 07:43:00;;;;;;;35.75;21.08;;;20.10;46.20;;;;;;5037132;28;20095;-75
2021/11/13 07:45:30;;;;;;;30.88;19.05;;;20.20;46.20;;;;;;5037100;28;20032;-76
2021/11/13 07:47:57;;;;;;;35.22;20.08;;;20.30;45.90;;;;;;5037662;28;20025;-75
2021/11/13 07:50:22;;;;;;;27.05;18.90;;;20.60;45.90;;;;;;5036374;28;20038;-74
2021/11/13 07:52:48;;;;;;;35.80;20.02;;;21.10;45.10;;;;;;5036233;28;20541;-74
2021/11/13 07:55:16;;;;;;;26.48;18.67;;;21.20;44.30;;;;;;5035615;28;20025;-75
2021/11/13 07:57:42;;;;;;;21.88;14.75;;;21.30;44.00;;;;;;5035279;28;20026;-76
2021/11/13 08:00:10;;;;;;;19.00;13.05;;;21.30;43.90;;;;;;5035450;28;20125;-75
2021/11/13 08:02:36;;;;;;;18.60;11.73;;;21.50;43.70;;;;;;5037278;28;20017;-76
2021/11/13 08:05:02;;;;;;;19.83;12.57;;;21.80;43.40;;;;;;5037228;28;20044;-75
2021/11/13 08:07:28;;;;;;;17.20;11.82;;;21.80;42.80;;;;;;5035401;28;20043;-75
2021/11/13 08:09:53;;;;;;;19.30;12.35;;;21.70;42.50;;;;;;5036533;28;20037;-76
2021/11/13 08:12:20;;;;;;;16.63;12.30;;;21.50;42.30;;;;;;5036513;28;20055;-76
2021/11/13 08:14:45;;;;;;;18.02;12.07;;;21.50;42.50;;;;;;5036252;28;20021;-75
2021/11/13 08:17:12;;;;;;;17.35;12.45;;;21.10;42.30;;;;;;5035321;28;20411;-76
2021/11/13 08:19:38;;;;;;;18.77;12.93;;;20.50;42.80;;;;;;5035411;28;20021;-78
2021/11/13 08:22:04;;;;;;;20.25;12.57;;;20.10;43.10;;;;;;5039497;28;20028;-74
2021/11/13 08:24:29;;;;;;;18.58;12.95;;;19.50;43.80;;;;;;5041912;28;20049;-76
2021/11/13 08:26:55;;;;;;;18.70;12.55;;;19.50;44.40;;;;;;5038533;28;20028;-76
2021/11/13 08:29:21;;;;;;;22.83;14.20;;;19.60;44.30;;;;;;5036634;28;20087;-75
2021/11/13 08:31:46;;;;;;;19.88;13.00;;;19.70;44.40;;;;;;5034965;28;20109;-75
2021/11/13 08:34:12;;;;;;;24.25;14.10;;;19.70;44.40;;;;;;5035158;28;20030;-75
2021/11/13 08:36:38;;;;;;;18.85;12.73;;;20.00;44.30;;;;;;5036518;28;20025;-75
2021/11/13 08:39:06;;;;;;;18.75;11.82;;;20.20;43.90;;;;;;5035831;28;20025;-75
2021/11/13 08:41:32;;;;;;;19.17;13.02;;;20.30;43.60;;;;;;5035920;28;20031;-75
2021/11/13 08:43:57;;;;;;;19.30;12.80;;;20.40;43.60;;;;;;5033918;28;20116;-75
2021/11/13 08:46:23;;;;;;;17.23;12.18;;;20.70;43.80;;;;;;5035930;28;20033;-76
2021/11/13 08:48:49;;;;;;;17.65;12.07;;;21.00;43.60;;;;;;5035005;28;20032;-76
2021/11/13 08:51:15;;;;;;;17.73;11.95;;;21.20;43.20;;;;;;5034810;28;20455;-75
2021/11/13 08:53:43;;;;;;;26.88;12.98;;;21.40;42.80;;;;;;5034646;28;20021;-75
2021/11/13 08:56:09;;;;;;;18.52;12.40;;;21.60;42.60;;;;;;5034505;28;20116;-75
2021/11/13 08:58:35;;;;;;;16.88;11.88;;;21.60;42.20;;;;;;5035654;28;20511;-76
2021/11/13 09:01:05;;;;;;;17.88;12.60;;;21.70;42.30;;;;;;5034896;28;20022;-75
2021/11/13 09:03:37;;;;;;;17.52;12.10;;;21.70;41.90;;;;;;5035725;28;20072;-76
2021/11/13 09:06:08;;;;;;;19.17;13.10;;;21.70;41.70;;;;;;5035190;28;20029;-76
2021/11/13 09:08:34;;;;;;;17.17;12.27;;;21.80;41.60;;;;;;5034020;28;20032;-73
2021/11/13 09:11:00;;;;;;;18.98;12.55;;;21.80;41.70;;;;;;5035665;28;20021;-74
2021/11/13 09:13:28;;;;;;;17.85;12.00;;;21.90;41.60;;;;;;5035411;28;20036;-75
2021/11/13 09:15:57;;;;;;;16.10;11.55;;;22.00;41.40;;;;;;5035863;28;20075;-74
2021/11/13 09:18:23;;;;;;;18.52;12.63;;;22.00;41.20;;;;;;5038323;28;20048;-74
2021/11/13 09:20:49;;;;;;;19.48;11.70;;;22.00;41.50;;;;;;5040360;28;20022;-75
2021/11/13 09:23:15;;;;;;;19.65;12.20;;;22.10;41.10;;;;;;5035838;28;20474;-75
2021/11/13 09:25:46;;;;;;;15.48;11.38;;;22.10;41.00;;;;;;5037706;28;20119;-74
2021/11/13 09:28:12;;;;;;;19.35;11.93;;;22.10;40.90;;;;;;5035704;28;20490;-75
2021/11/13 09:30:39;;;;;;;15.95;11.65;;;22.10;41.10;;;;;;5034647;28;20037;-75
2021/11/13 09:33:06;;;;;;;18.00;11.80;;;22.00;41.10;;;;;;5033655;28;20021;-76
2021/11/13 09:35:33;;;;;;;18.85;12.10;;;22.00;40.90;;;;;;5033384;28;20025;-75
2021/11/13 09:37:58;;;;;;;17.83;12.32;;;22.00;40.50;;;;;;5034660;28;20028;-76
2021/11/13 09:40:27;;;;;;;15.98;10.73;;;21.90;40.70;;;;;;5033414;28;20354;-75
2021/11/13 09:42:55;;;;;;;18.38;11.13;;;22.00;40.70;;;;;;5033598;28;20021;-74
2021/11/13 09:45:22;;;;;;;16.48;11.20;;;22.30;40.60;;;;;;5033652;28;20021;-75
2021/11/13 09:47:54;;;;;;;19.73;11.93;;;22.20;40.40;;;;;;5033126;28;20032;-74
2021/11/13 09:50:22;;;;;;;17.35;11.13;;;22.20;40.30;;;;;;5033084;28;20034;-75
2021/11/13 09:52:49;;;;;;;15.63;10.85;;;22.10;40.10;;;;;;5033351;28;20050;-75
2021/11/13 09:55:18;;;;;;;16.20;10.82;;;22.10;40.20;;;;;;5034029;28;20105;-75
2021/11/13 09:57:45;;;;;;;16.15;11.30;;;22.00;40.20;;;;;;5032708;28;20407;-75
2021/11/13 10:00:18;;;;;;;16.63;12.10;;;22.00;40.20;;;;;;5034919;28;20029;-74
2021/11/13 10:02:44;;;;;;;16.48;10.90;;;21.90;40.20;;;;;;5034653;28;20021;-75
2021/11/13 10:05:10;;;;;;;16.48;11.20;;;21.80;40.40;;;;;;5033477;28;20371;-74
2021/11/13 10:07:38;;;;;;;16.23;11.10;;;21.70;40.50;;;;;;5034252;28;20025;-76
2021/11/13 10:10:06;;;;;;;17.05;11.30;;;21.70;40.50;;;;;;5034610;28;20044;-74
2021/11/13 10:12:40;;;;;;;16.98;11.60;;;21.70;40.50;;;;;;5037526;28;20029;-75
2021/11/13 10:15:37;;;;;;;16.02;10.98;;;21.60;41.10;;;;;;5040579;28;20080;-74
2021/11/13 10:18:17;;;;;;;17.38;11.38;;;21.60;40.50;;;;;;5037761;28;20037;-76
2021/11/13 10:20:48;;;;;;;16.90;11.68;;;21.50;40.60;;;;;;5034511;28;20027;-75
2021/11/13 10:23:32;;;;;;;19.80;12.88;;;21.70;40.60;;;;;;5033461;28;20056;-76
2021/11/13 10:26:03;;;;;;;16.80;12.52;;;21.70;40.40;;;;;;5034239;28;20026;-74
2021/11/13 10:28:34;;;;;;;18.38;12.27;;;21.80;40.40;;;;;;5033197;28;20021;-75
2021/11/13 10:31:08;;;;;;;18.45;12.55;;;21.70;40.50;;;;;;5034131;28;20366;-75
2021/11/13 10:33:37;;;;;;;18.13;13.15;;;21.60;40.50;;;;;;5034005;28;20056;-76
2021/11/13 10:36:07;;;;;;;19.83;12.95;;;21.60;40.70;;;;;;5032683;28;20116;-75
2021/11/13 10:38:33;;;;;;;19.60;12.48;;;21.60;40.60;;;;;;5033103;28;20021;-75
2021/11/13 10:41:09;;;;;;;22.48;13.95;;;21.40;40.80;;;;;;5034416;28;20108;-75
2021/11/13 10:43:48;;;;;;;17.85;13.07;;;21.40;40.80;;;;;;5032965;28;20090;-76
2021/11/13 10:46:22;;;;;;;21.85;13.13;;;21.40;40.80;;;;;;5033884;28;20025;-74
2021/11/13 10:48:56;;;;;;;22.38;13.82;;;21.40;40.90;;;;;;5032762;28;20036;-75
2021/11/13 10:51:29;;;;;;;28.10;13.43;;;21.50;40.90;;;;;;5034151;28;20467;-74
2021/11/13 10:53:56;;;;;;;20.60;13.30;;;21.60;41.00;;;;;;5033873;28;20022;-75
2021/11/13 10:56:24;;;;;;;22.33;14.02;;;21.40;40.70;;;;;;5033774;28;20024;-75
2021/11/13 10:58:56;;;;;;;19.70;14.05;;;21.10;41.00;;;;;;5032057;28;20025;-75
2021/11/13 11:01:28;;;;;;;21.25;14.70;;;21.10;41.30;;;;;;5032438;28;20017;-75
2021/11/13 11:04:05;;;;;;;24.35;16.20;;;21.20;41.20;;;;;;5032612;28;20085;-75
2021/11/13 11:06:37;;;;;;;23.73;14.20;;;21.20;41.00;;;;;;5033932;28;20040;-75
2021/11/13 11:09:27;;;;;;;24.08;15.18;;;20.90;41.50;;;;;;5052099;28;20041;-76
2021/11/13 11:12:21;;;;;;;22.60;14.50;;;20.80;41.80;;;;;;5051622;28;20028;-74
2021/11/13 11:14:53;;;;;;;23.95;15.68;;;20.60;41.90;;;;;;5035020;28;20378;-75
2021/11/13 11:17:29;;;;;;;21.95;13.88;;;20.60;41.90;;;;;;5040301;28;20362;-76
2021/11/13 11:20:13;;;;;;;21.50;14.32;;;20.30;41.90;;;;;;5036126;28;20025;-76
2021/11/13 11:22:39;;;;;;;24.90;15.13;;;20.20;42.30;;;;;;5037815;28;20079;-75
2021/11/13 11:25:09;;;;;;;25.25;14.68;;;20.10;42.40;;;;;;5035755;28;20029;-75
2021/11/13 11:27:43;;;;;;;23.13;14.98;;;20.10;42.60;;;;;;5035950;28;20018;-75
2021/11/13 11:30:11;;;;;;;21.90;13.45;;;20.00;42.50;;;;;;5037177;28;20057;-74
2021/11/13 11:32:49;;;;;;;19.80;12.52;;;19.90;42.40;;;;;;5037049;28;20112;-75
2021/11/13 11:35:22;;;;;;;20.58;11.90;;;19.90;42.00;;;;;;5036380;28;20025;-75
2021/11/13 11:38:00;;;;;;;23.38;13.35;;;19.80;42.10;;;;;;5036037;28;20032;-75
2021/11/13 11:40:31;;;;;;;25.48;13.73;;;19.90;42.30;;;;;;5037420;28;20068;-75
2021/11/13 11:42:59;;;;;;;23.88;14.82;;;20.00;42.20;;;;;;5035626;28;20509;-74
2021/11/13 11:45:29;;;;;;;23.70;14.90;;;20.00;42.10;;;;;;5036804;28;20025;-74
2021/11/13 11:47:56;;;;;;;24.80;14.85;;;20.00;42.20;;;;;;5036344;28;20344;-74
2021/11/13 11:50:28;;;;;;;24.65;14.25;;;19.90;42.40;;;;;;5036019;28;20029;-74
2021/11/13 11:53:02;;;;;;;24.33;14.07;;;19.70;42.40;;;;;;5037126;28;20022;-74
2021/11/13 11:55:28;;;;;;;22.67;14.73;;;19.50;42.70;;;;;;5035584;28;20467;-74
2021/11/13 11:57:59;;;;;;;35.00;19.02;;;19.30;43.00;;;;;;5036976;28;20025;-75
2021/11/13 12:00:27;;;;;;;24.08;16.15;;;19.00;43.30;;;;;;5036558;28;20025;-74
2021/11/13 12:02:57;;;;;;;24.20;18.00;;;19.00;43.80;;;;;;5040656;28;20048;-73
2021/11/13 12:05:34;;;;;;;24.45;15.80;;;18.80;43.80;;;;;;5043557;28;20017;-75
2021/11/13 12:08:16;;;;;;;25.85;16.75;;;18.50;44.10;;;;;;5039473;28;20029;-75
2021/11/13 12:10:42;;;;;;;24.55;16.92;;;18.10;44.60;;;;;;5035539;28;20041;-75
2021/11/13 12:13:10;;;;;;;25.88;16.92;;;17.80;45.10;;;;;;5035524;28;20033;-76
2021/11/13 12:15:59;;;;;;;24.10;16.27;;;17.60;45.50;;;;;;5035311;28;20027;-75
2021/11/13 12:18:29;;;;;;;31.55;21.40;;;17.50;45.80;;;;;;5035828;28;20033;-75
2021/11/13 12:21:11;;;;;;;30.55;19.48;;;17.40;46.00;;;;;;5036772;28;20025;-75
2021/11/13 12:23:48;;;;;;;22.52;16.80;;;17.10;46.10;;;;;;5035369;28;20048;-75
2021/11/13 12:26:25;;;;;;;24.40;15.65;;;16.90;46.30;;;;;;5035823;28;20440;-74
2021/11/13 12:28:57;;;;;;;26.30;17.38;;;16.60;46.70;;;;;;5035559;28;20116;-75
2021/11/13 12:31:29;;;;;;;25.10;15.60;;;16.30;47.30;;;;;;5035949;28;20455;-75
2021/11/13 12:34:00;;;;;;;22.92;15.25;;;16.10;47.70;;;;;;5036317;28;20519;-75
2021/11/13 12:36:35;;;;;;;23.92;15.75;;;15.80;48.00;;;;;;5035421;28;20067;-75
2021/11/13 12:39:11;;;;;;;31.52;20.58;;;15.60;48.40;;;;;;5036311;28;20411;-74